createdAt,value
2023-01-18T00:00:39.239Z,1.80
2023-01-18T00:03:08.776Z,1.80
2023-01-18T00:05:40.927Z,1.80
2023-01-18T00:08:16.375Z,1.70
2023-01-18T00:10:44.849Z,1.70
2023-01-18T00:13:13.303Z,1.70
2023-01-18T00:15:41.390Z,1.80
2023-01-18T00:18:09.397Z,1.80
2023-01-18T00:20:37.407Z,1.80
2023-01-18T00:23:05.449Z,1.80
2023-01-18T00:25:34.755Z,1.80
2023-01-18T00:28:02.757Z,1.80
2023-01-18T00:30:30.921Z,1.80
2023-01-18T00:33:00.323Z,1.90
2023-01-18T00:35:28.886Z,1.70
2023-01-18T00:37:57.595Z,1.60
2023-01-18T00:40:30.213Z,1.70
2023-01-18T00:43:16.857Z,1.70
2023-01-18T00:45:44.960Z,1.70
2023-01-18T00:48:13.011Z,1.70
2023-01-18T00:50:41.042Z,1.80
2023-01-18T00:53:09.028Z,1.80
2023-01-18T00:55:37.049Z,1.70
2023-01-18T00:58:07.151Z,1.70
2023-01-18T01:00:35.602Z,1.60
2023-01-18T01:03:03.770Z,1.60
2023-01-18T01:05:49.578Z,1.70
2023-01-18T01:08:17.852Z,1.70
2023-01-18T01:10:47.166Z,1.70
2023-01-18T01:13:36.684Z,1.70
2023-01-18T01:16:27.047Z,1.80
2023-01-18T01:19:13.325Z,1.70
2023-01-18T01:21:59.216Z,1.70
2023-01-18T01:24:45.312Z,1.70
2023-01-18T01:27:14.041Z,1.70
2023-01-18T01:29:43.509Z,1.70
2023-01-18T01:32:11.978Z,1.60
2023-01-18T01:34:40.116Z,1.60
2023-01-18T01:37:08.162Z,1.60
2023-01-18T01:39:36.675Z,1.60
2023-01-18T01:42:04.821Z,1.60
2023-01-18T01:44:47.219Z,1.70
2023-01-18T01:47:26.898Z,1.70
2023-01-18T01:49:59.622Z,1.70
2023-01-18T01:52:33.613Z,1.60
2023-01-18T01:55:05.980Z,1.50
2023-01-18T01:57:38.100Z,1.60
2023-01-18T02:00:10.521Z,1.60
2023-01-18T02:02:43.577Z,1.60
2023-01-18T02:05:16.040Z,1.70
2023-01-18T02:07:44.814Z,1.60
2023-01-18T02:10:13.125Z,1.60
2023-01-18T02:12:43.341Z,1.60
2023-01-18T02:15:13.051Z,1.60
2023-01-18T02:18:05.331Z,1.60
2023-01-18T02:21:03.088Z,1.50
2023-01-18T02:23:54.707Z,1.50
2023-01-18T02:26:52.660Z,1.50
2023-01-18T02:29:34.144Z,1.50
2023-01-18T02:32:13.826Z,1.60
2023-01-18T02:34:48.767Z,1.60
2023-01-18T02:37:25.083Z,1.60
2023-01-18T02:40:02.165Z,1.60
2023-01-18T02:42:50.261Z,1.70
2023-01-18T02:45:41.574Z,1.60
2023-01-18T02:48:10.574Z,1.40
2023-01-18T02:50:38.793Z,1.20
2023-01-18T02:53:06.801Z,1.30
2023-01-18T02:55:44.311Z,1.30
2023-01-18T02:58:19.134Z,1.30
2023-01-18T03:00:52.887Z,1.30
2023-01-18T03:03:22.301Z,1.40
2023-01-18T03:05:51.825Z,1.40
2023-01-18T03:08:25.757Z,1.40
2023-01-18T03:11:01.203Z,1.40
2023-01-18T03:13:43.089Z,1.40
2023-01-18T03:16:19.028Z,1.50
2023-01-18T03:19:02.447Z,1.50
2023-01-18T03:21:40.442Z,1.50
2023-01-18T03:24:10.078Z,1.50
2023-01-18T03:26:42.478Z,1.50
2023-01-18T03:29:28.728Z,1.50
2023-01-18T03:32:20.182Z,1.40
2023-01-18T03:34:54.882Z,1.40
2023-01-18T03:37:28.437Z,1.30
2023-01-18T03:39:59.873Z,1.30
2023-01-18T03:42:31.341Z,1.20
2023-01-18T03:45:06.595Z,1.20
2023-01-18T03:47:36.525Z,1.20
2023-01-18T03:50:05.540Z,1.20
2023-01-18T03:52:41.655Z,1.20
2023-01-18T03:55:13.022Z,1.20
2023-01-18T03:57:46.116Z,1.20
2023-01-18T04:00:15.965Z,1.20
2023-01-18T04:02:48.045Z,1.20
2023-01-18T04:05:16.586Z,1.20
2023-01-18T04:07:44.638Z,1.20
2023-01-18T04:10:13.232Z,1.20
2023-01-18T04:12:41.297Z,1.20
2023-01-18T04:15:10.487Z,1.20
2023-01-18T04:17:39.629Z,1.20
2023-01-18T04:20:10.927Z,1.20
2023-01-18T04:22:38.963Z,1.20
2023-01-18T04:25:07.812Z,1.20
2023-01-18T04:27:35.780Z,1.20
2023-01-18T04:30:06.210Z,1.20
2023-01-18T04:32:34.611Z,1.20
2023-01-18T04:35:02.654Z,1.30
2023-01-18T04:37:34.137Z,1.30
2023-01-18T04:40:02.616Z,1.30
2023-01-18T04:42:30.730Z,1.30
2023-01-18T04:44:59.802Z,1.30
2023-01-18T04:47:28.965Z,1.40
2023-01-18T04:49:57.727Z,1.40
2023-01-18T04:52:26.798Z,1.40
2023-01-18T04:54:56.300Z,1.40
2023-01-18T04:57:24.383Z,1.30
2023-01-18T04:59:52.387Z,1.20
2023-01-18T05:02:20.712Z,1.20
2023-01-18T05:04:48.786Z,1.20
2023-01-18T05:07:17.372Z,1.20
2023-01-18T05:09:45.487Z,1.20
2023-01-18T05:12:14.849Z,1.20
2023-01-18T05:14:42.895Z,1.10
2023-01-18T05:17:10.872Z,1.10
2023-01-18T05:19:40.401Z,1.10
2023-01-18T05:22:08.435Z,1.10
2023-01-18T05:24:36.530Z,1.10
2023-01-18T05:27:04.683Z,1.20
2023-01-18T05:29:34.079Z,1.20
2023-01-18T05:32:02.089Z,1.20
2023-01-18T05:34:30.038Z,1.20
2023-01-18T05:36:58.743Z,1.20
2023-01-18T05:39:26.922Z,1.20
2023-01-18T05:41:54.910Z,1.20
2023-01-18T05:44:22.958Z,1.10
2023-01-18T05:46:52.359Z,1.10
2023-01-18T05:49:20.426Z,1.10
2023-01-18T05:51:48.415Z,1.20
2023-01-18T05:54:16.464Z,1.20
2023-01-18T05:56:44.583Z,1.20
2023-01-18T05:59:13.921Z,1.10
2023-01-18T06:01:42.225Z,1.10
2023-01-18T06:04:11.620Z,1.00
2023-01-18T06:06:39.664Z,0.90
2023-01-18T06:09:07.757Z,0.90
2023-01-18T06:11:35.858Z,1.00
2023-01-18T06:14:03.839Z,0.90
2023-01-18T06:16:31.972Z,0.90
2023-01-18T06:19:00.042Z,1.00
2023-01-18T06:21:29.428Z,0.90
2023-01-18T06:23:57.445Z,0.90
2023-01-18T06:26:25.954Z,0.90
2023-01-18T06:28:53.989Z,0.90
2023-01-18T06:31:23.093Z,0.90
2023-01-18T06:33:51.192Z,0.90
2023-01-18T06:36:19.212Z,0.90
2023-01-18T06:38:48.684Z,0.90
2023-01-18T06:41:17.097Z,0.90
2023-01-18T06:43:45.130Z,0.90
2023-01-18T06:46:13.586Z,0.90
2023-01-18T06:48:41.723Z,0.90
2023-01-18T06:51:09.690Z,0.90
2023-01-18T06:53:38.074Z,0.90
2023-01-18T06:56:10.254Z,0.90
2023-01-18T06:58:38.583Z,0.90
2023-01-18T07:01:07.306Z,0.80
2023-01-18T07:03:35.623Z,0.90
2023-01-18T07:06:05.813Z,0.80
2023-01-18T07:08:34.312Z,0.90
2023-01-18T07:11:08.074Z,0.80
2023-01-18T07:13:39.855Z,0.80
2023-01-18T07:16:09.471Z,0.80
2023-01-18T07:18:37.473Z,0.80
2023-01-18T07:21:07.367Z,0.80
2023-01-18T07:23:37.245Z,0.80
2023-01-18T07:26:08.240Z,0.70
2023-01-18T07:28:37.049Z,0.70
2023-01-18T07:31:06.227Z,0.60
2023-01-18T07:33:34.534Z,0.60
2023-01-18T07:36:04.969Z,0.70
2023-01-18T07:38:33.616Z,0.70
2023-01-18T07:41:03.229Z,0.70
2023-01-18T07:43:33.790Z,0.80
2023-01-18T07:46:04.230Z,0.80
2023-01-18T07:48:32.994Z,0.70
2023-01-18T07:51:02.328Z,0.80
2023-01-18T07:53:31.463Z,0.80
2023-01-18T07:56:00.657Z,0.80
2023-01-18T07:58:29.064Z,0.70
2023-01-18T08:01:03.960Z,0.70
2023-01-18T08:03:32.140Z,0.70
2023-01-18T08:06:00.644Z,0.70
2023-01-18T08:08:29.042Z,0.70
2023-01-18T08:10:57.589Z,0.80
2023-01-18T08:13:26.193Z,0.90
2023-01-18T08:15:55.533Z,0.80
2023-01-18T08:18:25.112Z,0.80
2023-01-18T08:20:55.172Z,0.90
2023-01-18T08:23:23.979Z,0.90
2023-01-18T08:25:52.299Z,0.90
2023-01-18T08:28:20.566Z,0.90
2023-01-18T08:30:49.770Z,0.90
2023-01-18T08:33:17.941Z,0.90
2023-01-18T08:35:48.694Z,0.90
2023-01-18T08:38:17.701Z,1.00
2023-01-18T08:40:45.738Z,1.00
2023-01-18T08:43:13.799Z,1.00
2023-01-18T08:45:41.863Z,1.10
2023-01-18T08:48:12.063Z,1.00
2023-01-18T08:50:40.192Z,1.10
2023-01-18T08:53:10.290Z,1.10
2023-01-18T08:55:38.379Z,1.10
2023-01-18T08:58:06.470Z,1.10
2023-01-18T09:00:34.546Z,1.20
2023-01-18T09:03:03.441Z,1.20
2023-01-18T09:05:31.800Z,1.20
2023-01-18T09:07:59.777Z,1.30
2023-01-18T09:10:29.377Z,1.30
2023-01-18T09:12:57.838Z,1.30
2023-01-18T09:15:26.983Z,1.40
2023-01-18T09:17:55.077Z,1.30
2023-01-18T09:20:23.157Z,1.30
2023-01-18T09:22:51.249Z,1.30
2023-01-18T09:25:20.743Z,1.30
2023-01-18T09:27:50.094Z,1.40
2023-01-18T09:30:18.500Z,1.40
2023-01-18T09:32:46.645Z,1.40
2023-01-18T09:35:18.096Z,1.50
2023-01-18T09:37:46.470Z,1.60
2023-01-18T09:40:20.592Z,1.60
2023-01-18T09:42:52.698Z,1.60
2023-01-18T09:45:33.237Z,1.60
2023-01-18T09:48:05.930Z,1.60
2023-01-18T09:50:39.895Z,1.70
2023-01-18T09:53:19.479Z,1.80
2023-01-18T09:55:54.022Z,1.80
2023-01-18T09:58:47.320Z,1.90
2023-01-18T10:01:19.168Z,1.90
2023-01-18T10:03:55.920Z,2.00
2023-01-18T10:06:28.192Z,2.00
2023-01-18T10:09:00.735Z,2.20
2023-01-18T10:11:43.171Z,2.30
2023-01-18T10:14:20.262Z,2.30
2023-01-18T10:16:56.893Z,2.30
2023-01-18T10:19:28.817Z,2.30
2023-01-18T10:22:04.307Z,2.40
2023-01-18T10:24:40.772Z,2.50
2023-01-18T10:27:39.643Z,2.50
2023-01-18T10:30:29.901Z,2.60
2023-01-18T10:33:01.501Z,2.60
2023-01-18T10:35:34.174Z,2.60
2023-01-18T10:38:05.651Z,2.70
2023-01-18T10:40:34.480Z,2.70
2023-01-18T10:43:04.419Z,2.80
2023-01-18T10:45:36.002Z,2.90
2023-01-18T10:48:24.275Z,2.90
2023-01-18T10:50:54.791Z,3.00
2023-01-18T10:53:27.440Z,3.00
2023-01-18T10:55:59.334Z,3.00
2023-01-18T10:58:34.456Z,3.00
2023-01-18T11:01:05.020Z,3.00
2023-01-18T11:03:44.742Z,3.10
2023-01-18T11:06:16.844Z,3.10
2023-01-18T11:08:45.416Z,3.20
2023-01-18T11:11:20.056Z,3.20
2023-01-18T11:13:49.990Z,3.20
2023-01-18T11:16:20.783Z,3.30
2023-01-18T11:19:17.689Z,3.30
2023-01-18T11:21:47.688Z,3.30
2023-01-18T11:24:19.150Z,3.30
2023-01-18T11:26:56.072Z,3.40
2023-01-18T11:29:28.924Z,3.40
2023-01-18T11:32:03.045Z,3.60
2023-01-18T11:34:33.378Z,3.70
2023-01-18T11:37:02.294Z,3.70
2023-01-18T11:39:33.596Z,3.70
2023-01-18T11:42:21.590Z,3.70
2023-01-18T11:45:08.035Z,3.70
2023-01-18T11:47:47.711Z,3.70
2023-01-18T11:50:28.207Z,3.80
2023-01-18T11:53:01.302Z,3.80
2023-01-18T11:55:34.078Z,3.90
2023-01-18T11:58:08.641Z,3.90
2023-01-18T12:00:48.032Z,4.00
2023-01-18T12:03:42.152Z,4.00
2023-01-18T12:06:22.903Z,4.00
2023-01-18T12:09:08.203Z,4.10
2023-01-18T12:11:50.174Z,4.30
2023-01-18T12:14:43.297Z,4.40
2023-01-18T12:17:31.861Z,4.40
2023-01-18T12:20:16.324Z,4.40
2023-01-18T12:23:09.319Z,4.40
2023-01-18T12:26:12.597Z,4.40
2023-01-18T12:28:53.661Z,4.50
2023-01-18T12:31:31.095Z,4.60
2023-01-18T12:34:09.074Z,4.60
2023-01-18T12:36:55.977Z,4.70
2023-01-18T12:39:40.467Z,4.80
2023-01-18T12:42:15.964Z,4.90
2023-01-18T12:45:02.177Z,5.00
2023-01-18T12:47:39.368Z,5.00
2023-01-18T12:50:22.911Z,5.10
2023-01-18T12:52:58.356Z,5.20
2023-01-18T12:55:28.780Z,5.30
2023-01-18T12:58:00.069Z,5.40
2023-01-18T13:00:35.279Z,5.50
2023-01-18T13:03:10.924Z,5.50
2023-01-18T13:05:51.065Z,5.50
2023-01-18T13:08:39.217Z,5.60
2023-01-18T13:11:11.278Z,5.70
2023-01-18T13:13:41.487Z,5.70
2023-01-18T13:16:19.719Z,5.80
2023-01-18T13:18:54.627Z,5.80
2023-01-18T13:21:34.449Z,6.00
2023-01-18T13:24:12.076Z,6.00
2023-01-18T13:26:40.284Z,5.90
2023-01-18T13:29:22.271Z,5.90
2023-01-18T13:31:50.952Z,5.80
2023-01-18T13:34:29.640Z,5.70
2023-01-18T13:37:13.468Z,5.70
2023-01-18T13:39:48.565Z,5.70
2023-01-18T13:42:35.094Z,5.70
2023-01-18T13:45:20.224Z,5.60
2023-01-18T13:47:53.905Z,5.60
2023-01-18T13:50:42.293Z,5.60
2023-01-18T13:53:28.990Z,5.60
2023-01-18T13:56:27.525Z,5.60
2023-01-18T13:59:01.667Z,5.70
2023-01-18T14:01:36.192Z,5.80
2023-01-18T14:04:26.031Z,5.80
2023-01-18T14:06:55.817Z,5.70
2023-01-18T14:09:35.469Z,5.80
2023-01-18T14:12:06.828Z,5.70
2023-01-18T14:14:37.079Z,5.50
2023-01-18T14:17:14.179Z,5.40
2023-01-18T14:20:12.009Z,5.40
2023-01-18T14:22:55.785Z,5.30
2023-01-18T14:25:33.959Z,5.30
2023-01-18T14:28:09.078Z,5.30
2023-01-18T14:30:41.064Z,5.30
2023-01-18T14:33:15.606Z,5.30
2023-01-18T14:35:52.680Z,5.30
2023-01-18T14:38:21.674Z,5.30
2023-01-18T14:40:52.601Z,5.30
2023-01-18T14:43:27.915Z,5.30
2023-01-18T14:46:00.224Z,5.40
2023-01-18T14:48:30.760Z,5.40
2023-01-18T14:51:00.207Z,5.40
2023-01-18T14:53:30.521Z,5.50
2023-01-18T14:56:08.295Z,5.60
2023-01-18T14:58:42.011Z,5.60
2023-01-18T15:01:26.713Z,5.50
2023-01-18T15:03:56.169Z,5.50
2023-01-18T15:06:33.163Z,5.50
2023-01-18T15:09:02.870Z,5.40
2023-01-18T15:11:31.534Z,5.40
2023-01-18T15:14:01.663Z,5.30
2023-01-18T15:16:32.010Z,5.20
2023-01-18T15:19:01.978Z,5.20
2023-01-18T15:21:33.604Z,5.20
2023-01-18T15:24:07.163Z,5.20
2023-01-18T15:26:43.579Z,5.20
2023-01-18T15:29:18.295Z,5.10
2023-01-18T15:31:53.022Z,5.10
2023-01-18T15:34:28.609Z,5.00
2023-01-18T15:36:58.789Z,5.00
2023-01-18T15:39:28.089Z,5.00
2023-01-18T15:41:58.115Z,5.00
2023-01-18T15:44:41.281Z,5.00
2023-01-18T15:47:18.804Z,4.90
2023-01-18T15:49:50.795Z,4.80
2023-01-18T15:52:39.034Z,4.70
2023-01-18T15:55:14.282Z,4.70
2023-01-18T15:57:43.757Z,4.60
2023-01-18T16:00:30.762Z,4.60
2023-01-18T16:02:59.738Z,4.60
2023-01-18T16:05:28.645Z,4.70
2023-01-18T16:08:20.090Z,4.60
2023-01-18T16:10:51.758Z,4.60
2023-01-18T16:13:39.433Z,4.60
2023-01-18T16:16:24.453Z,4.50
2023-01-18T16:19:03.083Z,4.40
2023-01-18T16:21:45.585Z,4.40
2023-01-18T16:24:32.070Z,4.30
2023-01-18T16:27:10.332Z,4.30
2023-01-18T16:29:45.195Z,4.30
2023-01-18T16:32:34.896Z,4.20
2023-01-18T16:35:14.122Z,4.20
2023-01-18T16:37:45.236Z,4.20
2023-01-18T16:40:16.410Z,4.10
2023-01-18T16:43:01.581Z,4.10
2023-01-18T16:45:31.085Z,4.00
2023-01-18T16:48:00.932Z,4.00
2023-01-18T16:50:29.408Z,4.00
2023-01-18T16:52:57.499Z,4.10
2023-01-18T16:55:25.589Z,4.10
2023-01-18T16:57:54.241Z,4.00
2023-01-18T17:00:24.751Z,4.00
2023-01-18T17:02:53.316Z,3.90
2023-01-18T17:05:22.850Z,3.90
2023-01-18T17:07:52.579Z,3.90
2023-01-18T17:10:26.110Z,3.80
2023-01-18T17:12:55.873Z,3.80
2023-01-18T17:15:23.911Z,3.90
2023-01-18T17:17:51.925Z,3.80
2023-01-18T17:20:23.701Z,3.80
2023-01-18T17:22:52.682Z,3.80
2023-01-18T17:25:21.177Z,3.80
2023-01-18T17:27:49.741Z,3.70
2023-01-18T17:30:19.716Z,3.80
2023-01-18T17:32:47.934Z,3.70
2023-01-18T17:35:18.019Z,3.70
2023-01-18T17:37:47.467Z,3.70
2023-01-18T17:40:23.419Z,3.70
2023-01-18T17:42:52.616Z,3.70
2023-01-18T17:45:20.729Z,3.70
2023-01-18T17:47:48.858Z,3.70
2023-01-18T17:50:22.910Z,3.60
2023-01-18T17:52:54.055Z,3.70
2023-01-18T17:55:27.478Z,3.80
2023-01-18T17:57:58.780Z,3.80
2023-01-18T18:00:27.299Z,3.80
2023-01-18T18:02:57.236Z,3.80
2023-01-18T18:05:25.607Z,3.70
2023-01-18T18:07:54.997Z,3.80
2023-01-18T18:10:23.779Z,3.70
2023-01-18T18:12:51.785Z,3.60
2023-01-18T18:15:23.465Z,3.60
2023-01-18T18:17:54.518Z,3.50
2023-01-18T18:20:22.985Z,3.50
2023-01-18T18:22:51.129Z,3.50
2023-01-18T18:25:20.544Z,3.50
2023-01-18T18:27:48.690Z,3.50
2023-01-18T18:30:18.503Z,3.40
2023-01-18T18:32:46.684Z,3.40
2023-01-18T18:35:24.886Z,3.40
2023-01-18T18:37:55.391Z,3.30
2023-01-18T18:40:25.083Z,3.30
2023-01-18T18:43:01.778Z,3.20
2023-01-18T18:45:31.850Z,3.20
2023-01-18T18:48:00.098Z,3.10
2023-01-18T18:50:28.716Z,3.10
2023-01-18T18:52:57.586Z,3.00
2023-01-18T18:55:27.257Z,3.10
2023-01-18T18:57:55.238Z,3.10
2023-01-18T19:00:24.677Z,3.10
2023-01-18T19:02:53.173Z,3.10
2023-01-18T19:05:21.524Z,3.10
2023-01-18T19:07:51.217Z,3.10
2023-01-18T19:10:20.291Z,3.00
2023-01-18T19:12:49.844Z,3.00
2023-01-18T19:15:18.000Z,2.90
2023-01-18T19:17:49.281Z,2.90
2023-01-18T19:20:19.749Z,2.80
2023-01-18T19:22:48.101Z,2.90
2023-01-18T19:25:16.663Z,2.80
2023-01-18T19:27:45.209Z,2.80
2023-01-18T19:30:19.082Z,2.90
2023-01-18T19:32:49.445Z,3.00
2023-01-18T19:35:21.719Z,3.00
2023-01-18T19:37:50.698Z,2.90
2023-01-18T19:40:20.180Z,2.80
2023-01-18T19:42:54.941Z,2.80
2023-01-18T19:45:28.730Z,2.80
2023-01-18T19:47:59.695Z,2.90
2023-01-18T19:50:29.832Z,2.90
2023-01-18T19:52:59.739Z,2.90
2023-01-18T19:55:28.511Z,2.80
2023-01-18T19:57:58.263Z,2.80
2023-01-18T20:00:30.084Z,2.80
2023-01-18T20:03:00.009Z,2.80
2023-01-18T20:05:28.792Z,2.80
2023-01-18T20:07:57.579Z,2.80
2023-01-18T20:10:26.216Z,2.80
2023-01-18T20:12:54.454Z,2.80
2023-01-18T20:15:23.176Z,2.90
2023-01-18T20:17:52.715Z,2.90
2023-01-18T20:20:31.839Z,2.80
2023-01-18T20:23:02.974Z,2.80
2023-01-18T20:25:34.164Z,2.70
2023-01-18T20:28:02.441Z,2.80
2023-01-18T20:30:30.833Z,2.70
2023-01-18T20:33:00.960Z,2.80
2023-01-18T20:35:29.654Z,2.80
2023-01-18T20:37:59.157Z,2.80
2023-01-18T20:40:27.424Z,2.80
2023-01-18T20:42:55.776Z,2.70
2023-01-18T20:45:24.109Z,2.70
2023-01-18T20:47:52.281Z,2.70
2023-01-18T20:50:23.237Z,2.70
2023-01-18T20:52:51.922Z,2.70
2023-01-18T20:55:20.407Z,2.70
2023-01-18T20:57:52.134Z,2.70
2023-01-18T21:00:21.237Z,2.80
2023-01-18T21:02:49.661Z,2.80
2023-01-18T21:05:18.212Z,2.80
2023-01-18T21:07:47.699Z,2.80
2023-01-18T21:10:15.760Z,2.80
2023-01-18T21:12:43.932Z,2.80
2023-01-18T21:15:12.961Z,2.70
2023-01-18T21:17:40.982Z,2.70
2023-01-18T21:20:10.311Z,2.60
2023-01-18T21:22:38.505Z,2.70
2023-01-18T21:25:08.837Z,2.70
2023-01-18T21:27:36.901Z,2.70
2023-01-18T21:30:05.804Z,2.70
2023-01-18T21:32:33.834Z,2.80
2023-01-18T21:35:01.939Z,2.80
2023-01-18T21:37:30.221Z,2.80
2023-01-18T21:39:58.280Z,2.70
2023-01-18T21:42:45.708Z,2.70
2023-01-18T21:45:31.150Z,2.70
2023-01-18T21:48:00.870Z,2.80
2023-01-18T21:50:46.537Z,2.80
2023-01-18T21:53:33.164Z,2.80
2023-01-18T21:56:01.490Z,2.80
2023-01-18T21:58:48.271Z,2.80
2023-01-18T22:01:18.354Z,2.70
2023-01-18T22:04:04.088Z,2.70
2023-01-18T22:06:32.282Z,2.60
2023-01-18T22:09:00.534Z,2.50
2023-01-18T22:11:28.572Z,2.50
2023-01-18T22:13:58.486Z,2.60
2023-01-18T22:16:30.398Z,2.50
2023-01-18T22:18:59.187Z,2.50
2023-01-18T22:21:27.793Z,2.50
2023-01-18T22:23:56.522Z,2.60
2023-01-18T22:26:26.181Z,2.70
2023-01-18T22:28:54.457Z,2.70
2023-01-18T22:31:26.994Z,2.70
2023-01-18T22:33:57.237Z,2.80
2023-01-18T22:36:43.831Z,2.80
2023-01-18T22:39:12.918Z,2.70
2023-01-18T22:41:41.039Z,2.70
2023-01-18T22:44:10.048Z,2.70
2023-01-18T22:46:39.982Z,2.70
2023-01-18T22:49:08.171Z,2.70
2023-01-18T22:51:36.511Z,2.60
2023-01-18T22:54:04.673Z,2.60
2023-01-18T22:56:32.990Z,2.60
2023-01-18T22:59:01.629Z,2.60
2023-01-18T23:01:31.795Z,2.70
2023-01-18T23:04:06.441Z,2.70
2023-01-18T23:06:48.009Z,2.70
2023-01-18T23:09:20.659Z,2.70
2023-01-18T23:11:48.998Z,2.70
2023-01-18T23:14:34.353Z,2.70
2023-01-18T23:17:19.771Z,2.70
2023-01-18T23:19:49.189Z,2.60
2023-01-18T23:22:17.216Z,2.70
2023-01-18T23:24:45.254Z,2.70
2023-01-18T23:27:13.269Z,2.80
2023-01-18T23:29:41.355Z,2.70
2023-01-18T23:32:09.817Z,2.60
2023-01-18T23:34:37.754Z,2.60
2023-01-18T23:37:07.223Z,2.60
2023-01-18T23:39:52.650Z,2.60
2023-01-18T23:42:38.199Z,2.70
2023-01-18T23:45:24.883Z,2.70
2023-01-18T23:48:10.340Z,2.60
2023-01-18T23:50:55.635Z,2.60
2023-01-18T23:53:42.682Z,2.60
2023-01-18T23:56:10.886Z,2.50
2023-01-18T23:58:40.548Z,2.50
